weather.gov     
National Weather Service

Terminal Aerodrome Forecast
NWS Homepage
This page is being discontinued on March 12, 2014.
The same data is available at this site. Please update your bookmarks.
Thank you, and we apologize for the inconvenience.
Please send an email to SR-SRH.Webmaster@noaa.gov with any concerns.


Current Version
Previous Version:    01  02  03  04  05  06  07  08  09  10  11  12  13  14  15  16  17  18  19  20  21  22  23  24  25  26  27  28  29  30  
   31  32  33  34  35  
[Printable]
169
FTUS45 KSLC 192335
TAFOGD
TAF
KOGD 192335Z 2000/2024 29006KT P6SM SCT080 BKN180
     FM200300 17006KT P6SM FEW080 SCT180
     FM201600 33007KT P6SM FEW070 SCT200=


169
FTUS45 KSLC 192335
TAFOGD
TAF
KOGD 192335Z 2000/2024 29006KT P6SM SCT080 BKN180
     FM200300 17006KT P6SM FEW080 SCT180
     FM201600 33007KT P6SM FEW070 SCT200=




U.S. Dept. of Commerce
NOAA National Weather Service
1325 East West Highway
Silver Spring, MD 20910
E-mail: w-nws.webmaster@noaa.gov
Page last modified: May 16, 2007
NATIONAL WEATHER SERVICE: for Safety, for Work, for Fun - FOR LIFE